Time;durP1;ratioP1;P1;durP2;ratioP2;P2;SDS_P1;SDS_P2;PMS_P1;PMS_P2;Temp;Humidity;BMP_temperature;BMP_pressure;BME280_temperature;BME280_humidity;BME280_pressure;Samples;Min_cycle;Max_cycle;Signal;HPM_P1;HPM_P2
2022/02/27 00:00:16;;;;;;;9.82;8.13;;;5.70;99.90;;;;;;5115397;27;20231;-68
2022/02/27 00:02:43;;;;;;;10.27;8.05;;;5.70;99.90;;;;;;5114590;27;20223;-67
2022/02/27 00:05:11;;;;;;;10.85;8.93;;;5.70;99.90;;;;;;5115596;27;20223;-69
2022/02/27 00:07:37;;;;;;;11.27;8.95;;;5.70;99.90;;;;;;5114647;27;20222;-68
2022/02/27 00:10:07;;;;;;;9.20;8.15;;;5.70;99.90;;;;;;5114877;28;20223;-67
2022/02/27 00:12:34;;;;;;;14.35;9.50;;;5.70;99.90;;;;;;5102332;28;20223;-67
2022/02/27 00:15:01;;;;;;;10.68;8.43;;;5.70;99.90;;;;;;5101390;28;20235;-67
2022/02/27 00:17:27;;;;;;;11.43;8.60;;;5.70;99.90;;;;;;5107106;27;20232;-67
2022/02/27 00:19:54;;;;;;;16.15;8.25;;;5.70;99.90;;;;;;5108441;28;20234;-67
2022/02/27 00:22:21;;;;;;;11.88;8.13;;;5.70;99.90;;;;;;5102302;28;20230;-67
2022/02/27 00:24:48;;;;;;;14.10;8.25;;;5.70;99.90;;;;;;5108250;28;20335;-67
2022/02/27 00:27:16;;;;;;;13.85;7.88;;;5.70;99.90;;;;;;5114295;27;20227;-67
2022/02/27 00:29:43;;;;;;;12.82;8.65;;;5.80;99.90;;;;;;5109345;27;20215;-67
2022/02/27 00:32:10;;;;;;;10.75;6.53;;;5.70;99.90;;;;;;5114820;28;20227;-67
2022/02/27 00:34:36;;;;;;;13.50;7.85;;;5.70;99.90;;;;;;5112266;27;20223;-68
2022/02/27 00:37:04;;;;;;;10.15;7.38;;;5.70;99.90;;;;;;5103168;28;20227;-68
2022/02/27 00:39:31;;;;;;;7.82;6.50;;;5.70;99.90;;;;;;5114374;27;20276;-68
2022/02/27 00:41:58;;;;;;;14.52;7.60;;;5.70;99.90;;;;;;5114613;27;20234;-68
2022/02/27 00:44:26;;;;;;;12.88;8.05;;;5.70;99.90;;;;;;5100583;27;20227;-68
2022/02/27 00:46:53;;;;;;;10.13;6.97;;;5.70;99.90;;;;;;5105042;27;20228;-68
2022/02/27 00:49:19;;;;;;;11.05;7.95;;;5.70;99.90;;;;;;5107870;28;20227;-68
2022/02/27 00:51:46;;;;;;;16.35;8.85;;;5.70;99.90;;;;;;5108323;27;20227;-68
2022/02/27 00:54:14;;;;;;;12.57;8.50;;;5.70;99.90;;;;;;5111448;27;20224;-68
2022/02/27 00:56:41;;;;;;;9.63;7.45;;;5.70;99.90;;;;;;5103602;28;20223;-67
2022/02/27 00:59:08;;;;;;;11.95;8.88;;;5.70;99.90;;;;;;5112661;27;20218;-68
2022/02/27 01:01:36;;;;;;;12.55;8.30;;;5.70;99.90;;;;;;5113416;27;20675;-68
2022/02/27 01:04:03;;;;;;;7.35;6.63;;;5.80;99.90;;;;;;5110139;28;20233;-68
2022/02/27 01:06:30;;;;;;;11.18;8.88;;;5.70;99.90;;;;;;5104439;27;20227;-68
2022/02/27 01:08:58;;;;;;;15.77;8.70;;;5.70;99.90;;;;;;5114248;27;20238;-68
2022/02/27 01:11:26;;;;;;;12.82;9.55;;;5.70;99.90;;;;;;5102380;28;20669;-68
2022/02/27 01:13:54;;;;;;;14.70;10.70;;;5.70;99.90;;;;;;5107299;28;20231;-68
2022/02/27 01:16:21;;;;;;;13.35;9.68;;;5.70;99.90;;;;;;5105409;28;20695;-68
2022/02/27 01:18:49;;;;;;;13.40;9.50;;;5.70;99.90;;;;;;5099975;28;20223;-68
2022/02/27 01:21:16;;;;;;;12.70;10.50;;;5.70;99.90;;;;;;5101709;28;20254;-67
2022/02/27 01:23:43;;;;;;;16.15;9.52;;;5.60;99.90;;;;;;5106496;28;20251;-67
2022/02/27 01:26:10;;;;;;;13.25;9.35;;;5.60;99.90;;;;;;5110792;27;20298;-67
2022/02/27 01:28:36;;;;;;;14.68;9.50;;;5.60;99.90;;;;;;5107615;28;20233;-68
2022/02/27 01:31:03;;;;;;;11.23;8.18;;;5.70;99.90;;;;;;5113573;28;20227;-67
2022/02/27 01:33:31;;;;;;;13.43;9.35;;;5.60;99.90;;;;;;5099482;27;20223;-68
2022/02/27 01:35:59;;;;;;;14.10;9.82;;;5.60;99.90;;;;;;5102133;28;20694;-68
2022/02/27 01:38:26;;;;;;;12.57;9.68;;;5.60;99.90;;;;;;5112600;27;20311;-68
2022/02/27 01:40:53;;;;;;;11.20;7.93;;;5.50;99.90;;;;;;5113776;28;20227;-68
2022/02/27 01:43:20;;;;;;;13.07;9.40;;;5.50;99.90;;;;;;5098939;28;20230;-68
2022/02/27 01:45:48;;;;;;;13.52;10.23;;;5.50;99.90;;;;;;5097128;28;20669;-68
2022/02/27 01:48:15;;;;;;;11.98;8.90;;;5.50;99.90;;;;;;5099383;28;20531;-68
2022/02/27 01:50:42;;;;;;;10.55;9.45;;;5.50;99.90;;;;;;5112966;27;20223;-68
2022/02/27 01:53:10;;;;;;;10.52;9.20;;;5.50;99.90;;;;;;5106421;28;20247;-68
2022/02/27 01:55:37;;;;;;;11.50;9.30;;;5.40;99.90;;;;;;5099138;28;20219;-68
2022/02/27 01:58:03;;;;;;;17.83;9.68;;;5.40;99.90;;;;;;5112972;27;20222;-68
2022/02/27 02:00:31;;;;;;;12.48;9.50;;;5.30;99.90;;;;;;5101249;27;20553;-68
2022/02/27 02:02:58;;;;;;;12.63;10.15;;;5.30;99.90;;;;;;5113836;28;20234;-68
2022/02/27 02:05:25;;;;;;;12.00;8.52;;;5.30;99.90;;;;;;5112631;27;20218;-68
2022/02/27 02:07:52;;;;;;;12.57;9.70;;;5.30;99.90;;;;;;5112279;27;20223;-68
2022/02/27 02:10:20;;;;;;;10.48;8.93;;;5.30;99.90;;;;;;5112941;28;20223;-69
2022/02/27 02:12:47;;;;;;;19.60;11.90;;;5.30;99.90;;;;;;5098817;28;20220;-68
2022/02/27 02:15:14;;;;;;;10.85;8.90;;;5.30;99.90;;;;;;5112442;28;20230;-67
2022/02/27 02:17:41;;;;;;;13.45;8.98;;;5.30;99.90;;;;;;5111834;28;20226;-69
2022/02/27 02:20:10;;;;;;;14.57;9.82;;;5.20;99.90;;;;;;5102136;27;20238;-69
2022/02/27 02:22:37;;;;;;;17.02;10.35;;;5.20;99.90;;;;;;5112254;27;20276;-69
2022/02/27 02:25:04;;;;;;;13.43;10.60;;;5.20;99.90;;;;;;5105946;28;20666;-69
2022/02/27 02:27:33;;;;;;;9.63;8.60;;;5.10;99.90;;;;;;5112389;27;20302;-68
2022/02/27 02:30:00;;;;;;;13.57;9.55;;;5.10;99.90;;;;;;5104038;28;20223;-67
2022/02/27 02:32:27;;;;;;;15.68;10.75;;;5.10;99.90;;;;;;5106286;28;20218;-68
2022/02/27 02:34:54;;;;;;;11.90;9.75;;;5.10;99.90;;;;;;5102454;27;20219;-67
2022/02/27 02:37:22;;;;;;;12.18;9.50;;;5.10;99.90;;;;;;5108592;28;20227;-67
2022/02/27 02:39:50;;;;;;;14.07;9.55;;;5.00;99.90;;;;;;5102835;28;20227;-67
2022/02/27 02:42:17;;;;;;;15.10;9.88;;;5.00;99.90;;;;;;5106268;28;20218;-67
2022/02/27 02:44:44;;;;;;;12.18;9.55;;;5.00;99.90;;;;;;5101325;28;20233;-68
2022/02/27 02:47:10;;;;;;;13.90;10.52;;;5.00;99.90;;;;;;5099120;28;20692;-68
2022/02/27 02:49:37;;;;;;;13.77;9.48;;;5.00;99.90;;;;;;5104479;27;20219;-68
2022/02/27 02:52:05;;;;;;;12.43;9.73;;;5.00;99.90;;;;;;5109937;28;20238;-68
2022/02/27 02:54:33;;;;;;;9.85;8.63;;;4.90;99.90;;;;;;5106470;27;20574;-68
2022/02/27 02:57:00;;;;;;;14.20;9.82;;;4.90;99.90;;;;;;5102977;28;20223;-68
2022/02/27 02:59:27;;;;;;;11.30;8.40;;;4.90;99.90;;;;;;5109799;27;20223;-68
2022/02/27 03:01:53;;;;;;;11.15;9.18;;;4.90;99.90;;;;;;5112098;27;20227;-68
2022/02/27 03:04:20;;;;;;;14.18;10.95;;;4.80;99.90;;;;;;5116716;27;20672;-68
2022/02/27 03:06:47;;;;;;;10.15;9.02;;;4.70;99.90;;;;;;5113001;27;20218;-68
2022/02/27 03:09:14;;;;;;;11.07;8.68;;;4.70;99.90;;;;;;5116707;28;20226;-68
2022/02/27 03:11:42;;;;;;;11.23;8.77;;;4.70;99.90;;;;;;5102101;28;20219;-68
2022/02/27 03:14:09;;;;;;;10.70;8.75;;;4.70;99.90;;;;;;5106114;28;20224;-68
2022/02/27 03:16:36;;;;;;;12.60;9.60;;;4.60;99.90;;;;;;5112462;28;20219;-68
2022/02/27 03:19:03;;;;;;;11.05;8.70;;;4.60;99.90;;;;;;5106271;28;20216;-69
2022/02/27 03:21:30;;;;;;;11.48;8.85;;;4.60;99.90;;;;;;5109660;27;20681;-68
2022/02/27 03:23:57;;;;;;;12.77;10.20;;;4.50;99.90;;;;;;5105855;28;20215;-68
2022/02/27 03:26:24;;;;;;;10.43;9.15;;;4.60;99.90;;;;;;5111470;27;20254;-68
2022/02/27 03:28:52;;;;;;;12.45;8.80;;;4.50;99.90;;;;;;5115838;27;20222;-68
2022/02/27 03:31:20;;;;;;;14.43;8.85;;;4.50;99.90;;;;;;5102221;28;20668;-68
2022/02/27 03:33:47;;;;;;;11.50;8.98;;;4.50;99.90;;;;;;5110328;27;20223;-68
2022/02/27 03:36:13;;;;;;;11.65;8.95;;;4.40;99.90;;;;;;5105977;28;20226;-69
2022/02/27 03:38:41;;;;;;;10.40;8.10;;;4.40;99.90;;;;;;5115645;27;20226;-69
2022/02/27 03:41:08;;;;;;;12.38;9.77;;;4.40;99.90;;;;;;5115367;28;20249;-68
2022/02/27 03:43:34;;;;;;;10.73;8.40;;;4.40;99.90;;;;;;5115459;27;20221;-68
2022/02/27 03:46:03;;;;;;;10.27;8.05;;;4.40;99.90;;;;;;5111784;28;20230;-68
2022/02/27 03:48:30;;;;;;;12.48;9.13;;;4.40;99.90;;;;;;5111342;27;20219;-69
2022/02/27 03:51:00;;;;;;;11.10;9.90;;;4.40;99.90;;;;;;5114668;27;20223;-69
2022/02/27 03:53:27;;;;;;;12.40;9.50;;;4.40;99.90;;;;;;5115624;27;20306;-69
2022/02/27 03:55:54;;;;;;;9.48;7.60;;;4.40;99.90;;;;;;5103903;28;20215;-69
2022/02/27 03:58:20;;;;;;;8.93;8.02;;;4.40;99.90;;;;;;5111328;27;20219;-69
2022/02/27 04:00:47;;;;;;;15.05;9.18;;;4.40;99.90;;;;;;5114504;27;20234;-68
2022/02/27 04:03:16;;;;;;;12.30;7.47;;;4.40;99.90;;;;;;5101960;28;20310;-69
2022/02/27 04:05:43;;;;;;;11.85;8.85;;;4.40;99.90;;;;;;5115003;27;20215;-69
2022/02/27 04:08:10;;;;;;;10.35;8.45;;;4.40;99.90;;;;;;5115203;28;20223;-69
2022/02/27 04:10:37;;;;;;;10.77;7.90;;;4.40;99.90;;;;;;5107328;28;20569;-69
2022/02/27 04:13:04;;;;;;;11.43;8.23;;;4.40;99.90;;;;;;5108608;28;20234;-69
2022/02/27 04:15:31;;;;;;;11.27;8.20;;;4.40;99.90;;;;;;5102775;28;20366;-69
2022/02/27 04:17:58;;;;;;;11.68;8.10;;;4.40;99.90;;;;;;5113839;28;20215;-68
2022/02/27 04:20:26;;;;;;;12.55;7.47;;;4.30;99.90;;;;;;5103275;28;20554;-69
2022/02/27 04:22:53;;;;;;;14.43;8.15;;;4.30;99.90;;;;;;5100881;28;20708;-69
2022/02/27 04:25:20;;;;;;;9.35;7.60;;;4.30;99.90;;;;;;5110198;27;20230;-69
2022/02/27 04:27:47;;;;;;;10.23;7.72;;;4.40;99.90;;;;;;5112702;27;20223;-69
2022/02/27 04:30:15;;;;;;;9.07;8.15;;;4.40;99.90;;;;;;5103964;28;20305;-68
2022/02/27 04:32:41;;;;;;;11.50;7.57;;;4.40;99.90;;;;;;5100794;27;20243;-69
2022/02/27 04:35:09;;;;;;;8.95;6.97;;;4.40;99.90;;;;;;5109455;27;20303;-69
2022/02/27 04:37:37;;;;;;;10.55;7.22;;;4.50;99.90;;;;;;5107103;28;20238;-68
2022/02/27 04:40:05;;;;;;;7.82;6.90;;;4.50;99.90;;;;;;5108330;28;20224;-69
2022/02/27 04:42:32;;;;;;;9.95;7.15;;;4.50;99.90;;;;;;5114278;27;20231;-68
2022/02/27 04:44:59;;;;;;;12.40;8.45;;;4.50;99.90;;;;;;5107643;28;20234;-69
2022/02/27 04:47:26;;;;;;;10.15;8.10;;;4.50;99.90;;;;;;5107740;28;20226;-68
2022/02/27 04:49:52;;;;;;;10.23;7.88;;;4.50;99.90;;;;;;5100140;28;20634;-68
2022/02/27 04:52:19;;;;;;;12.35;8.15;;;4.40;99.90;;;;;;5101100;28;20223;-68
2022/02/27 04:54:48;;;;;;;10.13;8.63;;;4.50;99.90;;;;;;5108878;27;20219;-68
2022/02/27 04:57:14;;;;;;;10.00;7.63;;;4.50;99.90;;;;;;5114594;27;20215;-68
2022/02/27 04:59:41;;;;;;;9.48;8.05;;;4.40;99.90;;;;;;5114144;27;20219;-69
2022/02/27 05:02:08;;;;;;;9.23;8.25;;;4.40;99.90;;;;;;5100808;28;20227;-68
2022/02/27 05:04:35;;;;;;;9.57;7.15;;;4.40;99.90;;;;;;5100858;28;20245;-68
2022/02/27 05:07:02;;;;;;;10.55;7.97;;;4.40;99.90;;;;;;5113558;28;20219;-69
2022/02/27 05:09:29;;;;;;;12.25;9.07;;;4.40;99.90;;;;;;5111811;27;20219;-69
2022/02/27 05:11:58;;;;;;;11.02;8.63;;;4.30;99.90;;;;;;5112316;27;20290;-68
2022/02/27 05:14:25;;;;;;;12.38;7.80;;;4.30;99.90;;;;;;5101388;28;20229;-68
2022/02/27 05:16:51;;;;;;;14.73;7.70;;;4.30;99.90;;;;;;5111713;28;20234;-69
2022/02/27 05:19:18;;;;;;;11.23;8.52;;;4.30;99.90;;;;;;5102077;28;20575;-69
2022/02/27 05:21:48;;;;;;;14.63;8.98;;;4.30;99.90;;;;;;5099879;28;20234;-69
2022/02/27 05:24:15;;;;;;;12.25;7.55;;;4.30;99.90;;;;;;5105222;28;20241;-69
2022/02/27 05:26:42;;;;;;;11.65;8.45;;;4.20;99.90;;;;;;5109272;27;20219;-69
2022/02/27 05:29:10;;;;;;;9.32;8.48;;;4.20;99.90;;;;;;5104606;28;20960;-69
2022/02/27 05:31:38;;;;;;;10.80;8.32;;;4.20;99.90;;;;;;5106967;28;20229;-68
2022/02/27 05:34:05;;;;;;;12.00;7.97;;;4.10;99.90;;;;;;5102618;28;20234;-68
2022/02/27 05:36:32;;;;;;;11.07;7.90;;;4.10;99.90;;;;;;5099404;28;20673;-69
2022/02/27 05:38:59;;;;;;;7.88;7.13;;;4.10;99.90;;;;;;5113131;28;20226;-69
2022/02/27 05:41:26;;;;;;;13.25;7.45;;;4.10;99.90;;;;;;5108780;27;20219;-67
2022/02/27 05:43:53;;;;;;;8.63;7.35;;;4.10;99.90;;;;;;5113064;28;20250;-68
2022/02/27 05:46:21;;;;;;;13.55;8.85;;;4.10;99.90;;;;;;5099783;28;20561;-68
2022/02/27 05:48:51;;;;;;;10.48;7.75;;;4.10;99.90;;;;;;5104073;28;20258;-68
2022/02/27 05:51:18;;;;;;;11.90;8.68;;;4.10;99.90;;;;;;5106109;28;20224;-68
2022/02/27 05:53:45;;;;;;;13.25;9.00;;;4.10;99.90;;;;;;5102886;28;20584;-68
2022/02/27 05:56:14;;;;;;;10.52;7.75;;;4.10;99.90;;;;;;5109701;27;20219;-68
2022/02/27 05:58:40;;;;;;;11.48;9.48;;;4.10;99.90;;;;;;5111789;28;20526;-68
2022/02/27 06:01:07;;;;;;;13.85;11.15;;;4.10;99.90;;;;;;5097845;28;20226;-68
2022/02/27 06:03:35;;;;;;;10.85;8.25;;;4.10;99.90;;;;;;5102559;28;20234;-68
2022/02/27 06:06:02;;;;;;;14.05;10.10;;;4.00;99.90;;;;;;5106001;28;20228;-69
2022/02/27 06:08:30;;;;;;;19.48;12.48;;;4.00;99.90;;;;;;5103690;28;20562;-69
2022/02/27 06:10:56;;;;;;;17.60;9.90;;;4.00;99.90;;;;;;5099050;27;20250;-69
2022/02/27 06:13:23;;;;;;;15.65;9.60;;;4.00;99.90;;;;;;5101513;28;20914;-69
2022/02/27 06:15:50;;;;;;;14.15;9.60;;;4.00;99.90;;;;;;5110227;28;20226;-69
2022/02/27 06:18:17;;;;;;;14.15;9.77;;;4.10;99.90;;;;;;5101584;27;20215;-68
2022/02/27 06:20:45;;;;;;;12.02;9.90;;;4.10;99.90;;;;;;5105791;27;20224;-69
2022/02/27 06:23:13;;;;;;;15.70;10.52;;;4.10;99.90;;;;;;5103453;28;20218;-68
2022/02/27 06:25:40;;;;;;;13.50;10.30;;;4.00;99.90;;;;;;5100422;28;20225;-69
2022/02/27 06:28:07;;;;;;;11.63;10.13;;;4.00;99.90;;;;;;5100439;28;20219;-67
2022/02/27 06:30:34;;;;;;;13.35;9.98;;;4.00;99.90;;;;;;5106220;28;20234;-68
2022/02/27 06:33:00;;;;;;;10.95;9.25;;;4.00;99.90;;;;;;5104612;28;20589;-69
2022/02/27 06:35:27;;;;;;;15.68;9.00;;;4.10;99.90;;;;;;5099438;27;20223;-69
2022/02/27 06:37:56;;;;;;;11.40;9.50;;;4.10;99.90;;;;;;5112510;27;20218;-70
2022/02/27 06:40:23;;;;;;;14.75;9.40;;;4.00;99.90;;;;;;5108451;28;20224;-69
2022/02/27 06:42:50;;;;;;;12.63;7.93;;;4.10;99.90;;;;;;5112368;27;20223;-69
2022/02/27 06:45:18;;;;;;;15.32;9.02;;;4.10;99.90;;;;;;5110545;28;20646;-68
2022/02/27 06:47:45;;;;;;;12.48;8.27;;;4.10;99.90;;;;;;5110411;28;20223;-68
2022/02/27 06:50:14;;;;;;;9.85;8.02;;;4.10;99.90;;;;;;5111501;27;20222;-70
2022/02/27 06:52:41;;;;;;;11.25;8.32;;;4.00;99.90;;;;;;5111738;27;20234;-69
2022/02/27 06:55:10;;;;;;;11.38;8.05;;;4.10;99.90;;;;;;5111574;27;20223;-69
2022/02/27 06:57:37;;;;;;;10.02;8.07;;;4.20;99.90;;;;;;5111707;27;20572;-69
2022/02/27 07:00:06;;;;;;;10.50;9.50;;;4.20;99.90;;;;;;5111541;27;20227;-69
2022/02/27 07:02:32;;;;;;;14.98;9.52;;;4.20;99.90;;;;;;5112547;27;20234;-69
2022/02/27 07:04:59;;;;;;;14.50;8.40;;;4.10;99.90;;;;;;5112248;27;20229;-69
2022/02/27 07:07:26;;;;;;;12.07;8.63;;;4.10;99.90;;;;;;5112761;27;20376;-69
2022/02/27 07:09:53;;;;;;;13.35;8.82;;;4.20;99.90;;;;;;5112343;27;20231;-68
2022/02/27 07:12:22;;;;;;;12.88;7.85;;;4.10;99.90;;;;;;5112538;27;20574;-69
2022/02/27 07:14:48;;;;;;;13.82;8.35;;;4.20;99.90;;;;;;5112524;27;20230;-68
2022/02/27 07:17:15;;;;;;;11.07;8.48;;;4.20;99.90;;;;;;5112070;27;20223;-68
2022/02/27 07:19:42;;;;;;;12.60;7.97;;;4.20;99.90;;;;;;5111304;27;20222;-68
2022/02/27 07:22:09;;;;;;;11.20;8.15;;;4.20;99.90;;;;;;5111455;27;20227;-68
2022/02/27 07:24:35;;;;;;;13.30;9.63;;;4.30;99.90;;;;;;5111071;27;20694;-68
2022/02/27 07:27:03;;;;;;;12.02;7.95;;;4.30;99.90;;;;;;5112104;27;20254;-68
2022/02/27 07:29:31;;;;;;;10.80;8.35;;;4.40;99.90;;;;;;5112453;27;20219;-68
2022/02/27 07:31:58;;;;;;;10.88;7.97;;;4.40;99.90;;;;;;5111839;27;20243;-69
2022/02/27 07:34:25;;;;;;;13.05;9.45;;;4.50;99.90;;;;;;5112644;27;20219;-69
2022/02/27 07:36:52;;;;;;;10.60;8.27;;;4.50;99.90;;;;;;5115994;27;20443;-68
2022/02/27 07:39:19;;;;;;;15.70;11.25;;;4.50;99.90;;;;;;5115875;27;20669;-68
2022/02/27 07:41:46;;;;;;;16.10;12.45;;;4.60;99.90;;;;;;5116312;27;20666;-68
2022/02/27 07:44:14;;;;;;;20.15;13.63;;;4.60;99.90;;;;;;5115695;27;20219;-68
2022/02/27 07:46:43;;;;;;;15.13;11.52;;;4.60;99.90;;;;;;5116094;27;20243;-68
2022/02/27 07:49:10;;;;;;;15.02;11.20;;;4.70;99.90;;;;;;5115693;27;20223;-68
2022/02/27 07:51:37;;;;;;;14.13;10.82;;;4.70;99.90;;;;;;5115914;27;20641;-68
2022/02/27 07:54:04;;;;;;;15.25;11.48;;;4.70;99.90;;;;;;5115450;27;20677;-67
2022/02/27 07:56:31;;;;;;;13.43;11.55;;;4.70;99.90;;;;;;5116271;27;20293;-68
2022/02/27 07:58:58;;;;;;;16.45;11.82;;;4.80;99.90;;;;;;5115479;27;20227;-68
2022/02/27 08:01:25;;;;;;;15.23;10.30;;;4.80;99.90;;;;;;5115681;27;20303;-67
2022/02/27 08:03:53;;;;;;;10.82;9.77;;;4.80;99.90;;;;;;5115858;27;20226;-68
2022/02/27 08:06:20;;;;;;;11.43;10.32;;;4.80;99.90;;;;;;5115261;27;20234;-68
2022/02/27 08:08:47;;;;;;;12.57;9.98;;;4.90;99.90;;;;;;5115819;27;20226;-68
2022/02/27 08:11:14;;;;;;;16.00;11.55;;;4.90;99.90;;;;;;5115217;27;20234;-68
2022/02/27 08:13:41;;;;;;;12.70;10.10;;;5.00;99.90;;;;;;5115499;27;20223;-68
2022/02/27 08:16:08;;;;;;;12.07;8.35;;;5.00;99.90;;;;;;5115230;27;20688;-68
2022/02/27 08:18:35;;;;;;;17.73;11.48;;;5.00;99.90;;;;;;5115379;27;20226;-68
2022/02/27 08:21:04;;;;;;;14.07;10.77;;;5.10;99.90;;;;;;5115054;27;20222;-68
2022/02/27 08:23:31;;;;;;;15.98;9.57;;;5.20;99.90;;;;;;5115519;27;20300;-68
2022/02/27 08:25:59;;;;;;;12.75;9.98;;;5.20;99.90;;;;;;5115025;27;20223;-69
2022/02/27 08:28:28;;;;;;;10.95;9.32;;;5.30;99.90;;;;;;5115010;27;20223;-69
2022/02/27 08:30:55;;;;;;;12.85;10.40;;;5.30;99.90;;;;;;5115353;27;20229;-69
2022/02/27 08:33:22;;;;;;;15.63;11.93;;;5.40;99.90;;;;;;5114699;27;20492;-69
2022/02/27 08:35:49;;;;;;;11.25;9.85;;;5.40;99.90;;;;;;5115162;27;20680;-69
2022/02/27 08:38:18;;;;;;;15.88;10.77;;;5.50;99.90;;;;;;5114745;27;20223;-69
2022/02/27 08:40:45;;;;;;;12.68;10.63;;;5.50;99.90;;;;;;5114931;27;20226;-69
2022/02/27 08:43:12;;;;;;;15.25;11.52;;;5.50;99.90;;;;;;5114655;27;20225;-69
2022/02/27 08:45:38;;;;;;;15.25;11.82;;;5.60;99.90;;;;;;5115095;27;20237;-68
2022/02/27 08:48:06;;;;;;;16.23;11.85;;;5.60;99.90;;;;;;5114483;27;20227;-69
2022/02/27 08:50:32;;;;;;;20.00;14.30;;;5.60;99.90;;;;;;5114789;27;20234;-69
2022/02/27 08:52:59;;;;;;;23.40;13.95;;;5.70;99.90;;;;;;5114365;27;20310;-68
2022/02/27 08:55:29;;;;;;;23.55;15.77;;;5.70;99.90;;;;;;5114673;27;20219;-69
2022/02/27 08:57:56;;;;;;;20.52;15.13;;;5.70;99.90;;;;;;5114773;27;20223;-69
2022/02/27 09:00:23;;;;;;;21.42;15.25;;;5.70;99.90;;;;;;5114215;27;20230;-69
2022/02/27 09:02:50;;;;;;;19.88;15.63;;;5.70;99.90;;;;;;5114672;27;20247;-69
2022/02/27 09:05:17;;;;;;;20.08;17.25;;;5.70;99.90;;;;;;5114158;27;20219;-69
2022/02/27 09:07:44;;;;;;;19.52;15.00;;;5.70;99.90;;;;;;5114790;27;20233;-69
2022/02/27 09:10:13;;;;;;;23.02;16.88;;;5.80;99.90;;;;;;5113921;27;20231;-69
2022/02/27 09:12:42;;;;;;;23.98;16.58;;;5.70;99.90;;;;;;5114308;27;20227;-69
2022/02/27 09:15:10;;;;;;;21.45;16.10;;;5.80;99.90;;;;;;5114035;27;20227;-69
2022/02/27 09:17:37;;;;;;;18.48;14.60;;;5.80;99.90;;;;;;5114196;27;20227;-69
2022/02/27 09:20:05;;;;;;;21.23;15.57;;;5.90;99.90;;;;;;5113825;27;20488;-69
2022/02/27 09:22:32;;;;;;;22.23;16.60;;;5.90;99.90;;;;;;5114249;27;20550;-68
2022/02/27 09:24:59;;;;;;;28.10;21.23;;;5.90;99.90;;;;;;5114316;27;20232;-68
2022/02/27 09:27:26;;;;;;;22.80;16.35;;;6.00;99.90;;;;;;5113768;27;20650;-68
2022/02/27 09:29:54;;;;;;;22.40;16.90;;;6.00;99.90;;;;;;5114078;27;20223;-68
2022/02/27 09:32:21;;;;;;;22.10;16.38;;;6.00;99.90;;;;;;5113622;27;20673;-68
2022/02/27 09:34:48;;;;;;;22.20;16.92;;;6.10;99.90;;;;;;5114332;27;20228;-68
2022/02/27 09:37:14;;;;;;;26.88;15.98;;;6.20;99.90;;;;;;5113410;27;20249;-68
2022/02/27 09:39:41;;;;;;;27.13;18.60;;;6.20;99.90;;;;;;5113911;27;20219;-68
2022/02/27 09:42:08;;;;;;;21.85;17.15;;;6.20;99.90;;;;;;5113583;27;20227;-68
2022/02/27 09:44:39;;;;;;;24.10;17.48;;;6.30;99.90;;;;;;5113811;27;20556;-68
2022/02/27 09:47:11;;;;;;;19.77;16.65;;;6.30;99.90;;;;;;5113346;27;20219;-68
2022/02/27 09:49:41;;;;;;;25.77;18.33;;;6.40;99.90;;;;;;5113798;27;20234;-68
2022/02/27 09:52:08;;;;;;;21.77;16.55;;;6.40;99.90;;;;;;5113267;27;20308;-68
2022/02/27 09:54:35;;;;;;;26.02;18.08;;;6.50;99.90;;;;;;5113658;27;20234;-69
2022/02/27 09:57:02;;;;;;;25.20;18.23;;;6.50;99.90;;;;;;5113620;27;20685;-68
2022/02/27 09:59:29;;;;;;;25.92;19.58;;;6.50;99.90;;;;;;5113062;27;20226;-69
2022/02/27 10:02:00;;;;;;;25.85;18.45;;;6.50;99.90;;;;;;5113109;27;20733;-68
2022/02/27 10:04:33;;;;;;;21.38;17.10;;;6.50;99.90;;;;;;5112969;27;20219;-68
2022/02/27 10:07:00;;;;;;;24.50;19.02;;;6.60;99.90;;;;;;5113429;27;20233;-70
2022/02/27 10:09:27;;;;;;;21.75;17.15;;;6.60;99.90;;;;;;5115189;27;20215;-69
2022/02/27 10:11:54;;;;;;;25.35;17.67;;;6.60;99.90;;;;;;5133875;27;20234;-70
2022/02/27 10:14:31;;;;;;;24.02;17.42;;;6.70;99.90;;;;;;5133498;27;20226;-69
2022/02/27 10:17:06;;;;;;;21.67;17.65;;;6.70;99.90;;;;;;5133663;27;20676;-69
2022/02/27 10:19:37;;;;;;;18.58;15.57;;;6.80;99.90;;;;;;5133338;27;20970;-69
2022/02/27 10:22:04;;;;;;;21.10;17.40;;;6.80;99.90;;;;;;5133794;27;20234;-68
2022/02/27 10:24:35;;;;;;;26.10;17.63;;;6.90;99.90;;;;;;5133182;27;20672;-69
2022/02/27 10:27:09;;;;;;;19.60;16.30;;;6.90;99.90;;;;;;5133746;27;20226;-68
2022/02/27 10:29:37;;;;;;;26.30;17.10;;;6.90;99.90;;;;;;5133566;27;20245;-69
2022/02/27 10:32:05;;;;;;;22.00;17.63;;;7.00;99.90;;;;;;5133700;27;20321;-68
2022/02/27 10:34:35;;;;;;;24.27;19.60;;;6.90;99.90;;;;;;5133057;27;20282;-69
2022/02/27 10:37:04;;;;;;;22.80;18.58;;;6.90;99.90;;;;;;5133568;27;20223;-68
2022/02/27 10:39:34;;;;;;;23.05;16.92;;;6.90;99.90;;;;;;5133174;27;20230;-69
2022/02/27 10:42:10;;;;;;;24.88;20.48;;;6.90;99.90;;;;;;5133653;27;20317;-69
2022/02/27 10:44:37;;;;;;;20.55;17.40;;;6.90;99.90;;;;;;5132837;27;20221;-68
2022/02/27 10:47:13;;;;;;;18.63;16.65;;;6.90;99.90;;;;;;5133529;27;20233;-68
2022/02/27 10:49:42;;;;;;;22.58;18.65;;;6.90;99.90;;;;;;5133210;27;20210;-68
2022/02/27 10:52:18;;;;;;;19.73;15.90;;;7.00;99.90;;;;;;5133172;27;20226;-69
2022/02/27 10:54:47;;;;;;;21.35;17.42;;;7.00;99.90;;;;;;5132862;27;20291;-69
2022/02/27 10:57:35;;;;;;;22.23;16.42;;;7.00;99.90;;;;;;5133438;27;20249;-68
2022/02/27 11:00:12;;;;;;;22.15;16.15;;;7.00;99.90;;;;;;5133260;27;20730;-68
2022/02/27 11:02:40;;;;;;;21.55;15.77;;;7.10;99.90;;;;;;5133169;27;20225;-69
2022/02/27 11:05:11;;;;;;;21.40;17.27;;;7.20;99.90;;;;;;5132778;27;20232;-69
2022/02/27 11:07:40;;;;;;;20.60;17.55;;;7.20;99.90;;;;;;5133192;27;20218;-69
2022/02/27 11:10:08;;;;;;;22.45;16.63;;;7.30;99.90;;;;;;5107994;27;20497;-69
2022/02/27 11:12:37;;;;;;;18.88;16.88;;;7.30;99.90;;;;;;5096363;28;20230;-69
2022/02/27 11:15:05;;;;;;;18.25;15.80;;;7.30;99.90;;;;;;5095883;28;20254;-69
2022/02/27 11:17:33;;;;;;;22.95;17.20;;;7.40;99.90;;;;;;5096232;28;20307;-69
2022/02/27 11:20:01;;;;;;;20.20;17.15;;;7.40;99.90;;;;;;5096208;28;20241;-69
2022/02/27 11:22:30;;;;;;;21.88;18.02;;;7.50;99.90;;;;;;5095694;28;20219;-69
2022/02/27 11:24:58;;;;;;;35.30;31.50;;;7.50;99.90;;;;;;5096186;28;20228;-69
2022/02/27 11:27:28;;;;;;;41.17;37.15;;;7.50;99.90;;;;;;5095504;28;20227;-69
2022/02/27 11:29:56;;;;;;;28.27;25.20;;;7.50;99.90;;;;;;5095992;28;20232;-69
2022/02/27 11:32:23;;;;;;;23.45;20.15;;;7.60;99.90;;;;;;5095456;28;20227;-69
2022/02/27 11:34:50;;;;;;;23.70;19.48;;;7.50;99.90;;;;;;5095939;28;20232;-69
2022/02/27 11:37:37;;;;;;;20.40;18.20;;;7.50;99.90;;;;;;5095312;28;20566;-69
2022/02/27 11:40:32;;;;;;;22.23;17.05;;;7.50;99.90;;;;;;5095681;28;20220;-69
2022/02/27 11:43:00;;;;;;;25.88;19.13;;;7.60;99.90;;;;;;5095650;28;20224;-69
2022/02/27 11:45:55;;;;;;;21.83;18.20;;;7.60;99.90;;;;;;5095698;28;20250;-69
2022/02/27 11:48:56;;;;;;;20.42;18.10;;;7.60;99.90;;;;;;5096015;28;20533;-69
2022/02/27 11:51:46;;;;;;;21.35;17.15;;;7.50;99.90;;;;;;5095288;28;20306;-69
2022/02/27 11:54:15;;;;;;;21.25;17.35;;;7.50;99.90;;;;;;5095029;28;20235;-69
2022/02/27 11:56:46;;;;;;;20.73;18.35;;;7.50;99.90;;;;;;5095248;28;20227;-69
2022/02/27 11:59:16;;;;;;;22.15;18.55;;;7.40;99.90;;;;;;5095131;28;20229;-69
2022/02/27 12:01:57;;;;;;;21.92;17.73;;;7.40;99.90;;;;;;5095273;28;20278;-69
2022/02/27 12:04:28;;;;;;;22.77;18.15;;;7.40;99.90;;;;;;5095089;28;20223;-69
2022/02/27 12:07:06;;;;;;;21.48;17.92;;;7.40;99.90;;;;;;5095233;28;20231;-69
2022/02/27 12:09:55;;;;;;;17.38;14.38;;;7.40;99.90;;;;;;5095239;28;20219;-69
2022/02/27 12:12:49;;;;;;;19.10;16.08;;;7.40;99.90;;;;;;5094697;28;20645;-69
2022/02/27 12:15:20;;;;;;;22.80;16.33;;;7.40;99.90;;;;;;5092210;28;20239;-69
2022/02/27 12:17:55;;;;;;;19.83;15.45;;;7.40;99.90;;;;;;5095279;28;20681;-69
2022/02/27 12:20:44;;;;;;;17.27;13.65;;;7.40;99.90;;;;;;5094523;28;20262;-69
2022/02/27 12:23:13;;;;;;;27.30;18.33;;;7.50;99.90;;;;;;5094656;28;20224;-69
2022/02/27 12:25:44;;;;;;;27.83;22.58;;;7.40;99.90;;;;;;5094857;28;20250;-69
2022/02/27 12:28:12;;;;;;;19.40;16.65;;;7.30;99.90;;;;;;5094668;28;20223;-69
2022/02/27 12:30:42;;;;;;;26.38;18.50;;;7.30;99.90;;;;;;5095000;28;20223;-69
2022/02/27 12:33:09;;;;;;;24.73;18.30;;;7.30;99.90;;;;;;5094771;28;20231;-69
2022/02/27 12:35:36;;;;;;;25.92;16.70;;;7.30;99.90;;;;;;5106405;27;20215;-69
2022/02/27 12:38:04;;;;;;;22.52;18.50;;;7.20;99.90;;;;;;5101647;27;20234;-69
2022/02/27 12:40:33;;;;;;;20.40;17.98;;;7.10;99.90;;;;;;5092520;28;20287;-69
2022/02/27 12:43:04;;;;;;;23.23;18.38;;;7.10;99.90;;;;;;5094091;28;20224;-69
2022/02/27 12:45:35;;;;;;;23.88;18.15;;;7.00;99.90;;;;;;5116852;27;21716;-69
2022/02/27 12:48:10;;;;;;;23.90;17.83;;;7.00;99.90;;;;;;5107289;27;20261;-69